createdAt,value
2018-02-08T00:02:16.962Z,45.80
2018-02-08T00:04:45.062Z,47.30
2018-02-08T00:07:13.112Z,45.23
2018-02-08T00:09:41.173Z,45.57
2018-02-08T00:12:11.658Z,47.87
2018-02-08T00:14:45.482Z,45.80
2018-02-08T00:20:21.189Z,41.63
2018-02-08T00:22:49.998Z,41.70
2018-02-08T00:25:19.045Z,43.10
2018-02-08T00:27:47.120Z,43.00
2018-02-08T00:30:15.204Z,44.33
2018-02-08T00:32:44.028Z,42.87
2018-02-08T00:35:12.107Z,43.37
2018-02-08T00:37:41.946Z,46.67
2018-02-08T00:40:10.973Z,48.23
2018-02-08T00:42:41.045Z,44.63
2018-02-08T00:45:20.865Z,42.77
2018-02-08T00:47:48.949Z,43.13
2018-02-08T00:50:17.025Z,42.83
2018-02-08T00:52:45.143Z,41.70
2018-02-08T00:55:13.278Z,46.70
2018-02-08T00:58:01.863Z,46.03
2018-02-08T01:00:37.570Z,44.30
2018-02-08T01:03:09.699Z,44.77
2018-02-08T01:05:42.553Z,46.33
2018-02-08T01:08:10.921Z,45.47
2018-02-08T01:10:41.644Z,50.33
2018-02-08T01:13:11.938Z,55.93
2018-02-08T01:15:57.307Z,72.57
2018-02-08T01:18:44.143Z,47.93
2018-02-08T01:21:13.086Z,47.83
2018-02-08T01:23:41.196Z,50.47
2018-02-08T01:26:10.790Z,50.13
2018-02-08T01:28:41.840Z,48.30
2018-02-08T01:31:35.363Z,43.43
2018-02-08T01:34:18.421Z,40.80
2018-02-08T01:39:47.155Z,40.63
2018-02-08T01:42:15.999Z,40.47
2018-02-08T01:44:44.202Z,41.23
2018-02-08T01:47:12.253Z,43.10
2018-02-08T01:50:01.086Z,42.93
2018-02-08T01:53:01.219Z,42.93
2018-02-08T01:55:34.337Z,41.90
2018-02-08T01:58:33.344Z,42.60
2018-02-08T02:01:07.333Z,45.60
2018-02-08T02:03:38.792Z,44.63
2018-02-08T02:06:09.815Z,43.97
2018-02-08T02:08:40.743Z,42.83
2018-02-08T02:11:32.217Z,45.30
2018-02-08T02:14:06.699Z,43.77
2018-02-08T02:19:45.993Z,39.90
2018-02-08T02:22:14.817Z,42.07
2018-02-08T02:24:43.113Z,42.27
2018-02-08T02:27:11.193Z,40.67
2018-02-08T02:29:41.096Z,41.47
2018-02-08T02:32:32.362Z,42.73
2018-02-08T02:44:33.847Z,39.03
2018-02-08T02:47:29.551Z,42.73
2018-02-08T02:50:02.953Z,42.93
2018-02-08T02:52:36.395Z,42.87
2018-02-08T02:55:06.886Z,43.13
2018-02-08T02:57:41.273Z,42.87
2018-02-08T03:00:13.716Z,45.60
2018-02-08T03:03:01.363Z,45.50
2018-02-08T03:08:45.386Z,45.40
2018-02-08T03:11:13.817Z,43.73
2018-02-08T03:13:42.758Z,47.50
2018-02-08T03:16:13.096Z,50.67
2018-02-08T03:18:42.446Z,50.50
2018-02-08T03:21:30.407Z,48.77
2018-02-08T03:24:14.226Z,45.63
2018-02-08T03:33:01.380Z,44.07
2018-02-08T03:35:36.577Z,43.63
2018-02-08T03:38:08.091Z,43.47
2018-02-08T03:40:40.206Z,44.80
2018-02-08T03:43:13.286Z,43.77
2018-02-08T03:49:04.450Z,44.73
2018-02-08T03:51:59.955Z,47.20
2018-02-08T03:54:46.671Z,45.13
2018-02-08T04:00:11.275Z,47.67
2018-02-08T04:02:43.707Z,45.27
2018-02-08T04:05:13.651Z,46.67
2018-02-08T04:07:43.970Z,47.57
2018-02-08T04:10:12.755Z,46.13
2018-02-08T04:12:44.833Z,45.77
2018-02-08T04:15:13.701Z,47.67
2018-02-08T04:17:47.946Z,45.13
2018-02-08T04:20:16.291Z,48.10
2018-02-08T04:22:44.467Z,49.70
2018-02-08T04:25:34.389Z,47.80
2018-02-08T04:28:06.633Z,47.07
2018-02-08T04:30:40.758Z,47.07
2018-02-08T04:33:11.790Z,47.13
2018-02-08T04:35:43.137Z,46.00
2018-02-08T04:38:34.381Z,44.00
2018-02-08T04:41:31.768Z,45.80
2018-02-08T04:44:14.789Z,43.33
2018-02-08T04:50:06.866Z,48.70
2018-02-08T04:52:51.934Z,56.70
2018-02-08T04:55:21.732Z,53.90
2018-02-08T04:57:49.909Z,63.13
2018-02-08T05:00:21.459Z,56.63
2018-02-08T05:03:09.817Z,55.37
2018-02-08T05:05:42.803Z,47.07
2018-02-08T05:08:10.862Z,52.30
2018-02-08T05:10:42.365Z,49.67
2018-02-08T05:13:12.453Z,50.83
2018-02-08T05:15:43.465Z,47.37
2018-02-08T05:18:13.475Z,47.03
2018-02-08T05:20:41.536Z,46.73
2018-02-08T05:23:11.504Z,43.53
2018-02-08T05:25:42.137Z,49.43
2018-02-08T05:28:10.220Z,46.23
2018-02-08T05:30:38.278Z,45.77
2018-02-08T05:33:10.034Z,49.57
2018-02-08T05:35:42.107Z,46.27
2018-02-08T05:41:12.824Z,44.20
2018-02-08T05:43:40.898Z,46.57
2018-02-08T05:46:12.978Z,50.03
2018-02-08T05:48:41.053Z,48.53
2018-02-08T05:51:17.795Z,50.07
2018-02-08T05:53:45.864Z,49.00
2018-02-08T05:56:14.342Z,50.47
2018-02-08T05:58:43.400Z,49.03
2018-02-08T06:01:14.113Z,49.63
2018-02-08T06:03:42.397Z,48.80
2018-02-08T06:06:31.810Z,48.83
2018-02-08T06:09:33.605Z,48.20
2018-02-08T06:12:32.424Z,48.20
2018-02-08T06:18:11.822Z,51.60
2018-02-08T06:20:43.461Z,52.53
2018-02-08T06:23:13.298Z,57.00
2018-02-08T06:25:42.618Z,53.33
2018-02-08T06:28:13.451Z,54.03
2018-02-08T06:30:42.910Z,54.77
2018-02-08T06:33:10.976Z,56.20
2018-02-08T06:35:41.206Z,55.77
2018-02-08T06:38:10.806Z,60.00
2018-02-08T06:40:41.841Z,58.70
2018-02-08T06:43:12.143Z,55.77
2018-02-08T06:48:41.738Z,54.70
2018-02-08T06:51:11.299Z,58.27
2018-02-08T06:53:39.341Z,58.20
2018-02-08T06:56:08.717Z,56.97
2018-02-08T06:58:40.318Z,59.27
2018-02-08T07:01:31.139Z,70.40
2018-02-08T07:04:31.199Z,63.00
2018-02-08T07:07:13.523Z,65.57
2018-02-08T07:09:42.119Z,75.07
2018-02-08T07:12:10.223Z,63.17
2018-02-08T07:14:41.303Z,55.03
2018-02-08T07:17:11.693Z,58.07
2018-02-08T07:19:39.921Z,69.57
2018-02-08T07:22:32.030Z,64.03
2018-02-08T07:25:01.348Z,59.37
2018-02-08T07:27:32.779Z,74.20
2018-02-08T07:30:26.510Z,68.83
2018-02-08T07:33:09.385Z,58.83
2018-02-08T07:35:41.114Z,58.40
2018-02-08T07:38:11.002Z,57.50
2018-02-08T07:40:41.855Z,62.23
2018-02-08T07:43:11.764Z,62.67
2018-02-08T07:46:04.127Z,63.90
2018-02-08T07:48:34.297Z,57.10
2018-02-08T07:51:03.867Z,57.23
2018-02-08T07:53:34.216Z,63.33
2018-02-08T07:56:11.742Z,59.43
2018-02-08T08:01:49.349Z,60.03
2018-02-08T08:04:18.213Z,67.17
2018-02-08T08:06:46.420Z,70.93
2018-02-08T08:09:14.468Z,61.03
2018-02-08T08:11:42.529Z,63.80
2018-02-08T08:14:11.499Z,62.40
2018-02-08T08:16:39.772Z,67.67
2018-02-08T08:19:08.673Z,62.50
2018-02-08T08:21:44.776Z,62.37
2018-02-08T08:24:12.826Z,66.47
2018-02-08T08:26:40.990Z,60.10
2018-02-08T08:29:10.032Z,58.47
2018-02-08T08:31:43.155Z,58.13
2018-02-08T08:34:11.216Z,59.97
2018-02-08T08:36:39.409Z,60.03
2018-02-08T08:39:07.708Z,58.97
2018-02-08T08:41:43.974Z,63.90
2018-02-08T08:44:12.114Z,65.00
2018-02-08T08:46:40.810Z,61.00
2018-02-08T08:49:09.924Z,62.30
2018-02-08T08:51:39.148Z,61.03
2018-02-08T08:54:35.055Z,61.07
2018-02-08T08:57:27.827Z,60.57
2018-02-08T09:00:16.683Z,57.77
2018-02-08T09:02:44.774Z,61.20
2018-02-08T09:05:12.841Z,62.20
2018-02-08T09:07:42.614Z,59.97
2018-02-08T09:10:10.999Z,60.17
2018-02-08T09:13:02.432Z,62.77
2018-02-08T09:15:32.480Z,60.30
2018-02-08T09:18:08.805Z,60.17
2018-02-08T09:20:39.085Z,57.43
2018-02-08T09:23:08.901Z,61.73
2018-02-08T09:25:37.535Z,53.87
2018-02-08T09:28:10.683Z,61.37
2018-02-08T09:31:02.444Z,61.93
2018-02-08T09:33:50.361Z,59.33
2018-02-08T09:36:18.654Z,72.23
2018-02-08T09:38:46.868Z,63.67
2018-02-08T09:41:16.817Z,59.33
2018-02-08T09:43:45.557Z,58.70
2018-02-08T09:46:30.298Z,56.67
2018-02-08T09:49:27.238Z,56.47
2018-02-08T09:52:03.553Z,57.27
2018-02-08T09:54:42.031Z,59.77
2018-02-08T09:57:11.263Z,56.97
2018-02-08T09:59:40.068Z,55.33
2018-02-08T10:02:12.188Z,57.53
2018-02-08T10:04:42.238Z,56.53
2018-02-08T10:07:29.711Z,52.87
2018-02-08T10:10:07.559Z,53.47
2018-02-08T10:12:47.746Z,53.43
2018-02-08T10:15:15.857Z,55.47
2018-02-08T10:17:43.902Z,59.07
2018-02-08T10:20:12.460Z,55.57
2018-02-08T10:22:41.862Z,54.60
2018-02-08T10:25:10.539Z,54.47
2018-02-08T10:27:41.842Z,53.67
2018-02-08T10:30:10.977Z,58.90
2018-02-08T10:32:41.647Z,64.27
2018-02-08T10:35:13.299Z,65.83
2018-02-08T10:37:47.667Z,69.63
2018-02-08T10:40:15.791Z,66.97
2018-02-08T10:42:44.723Z,66.63
2018-02-08T10:45:12.792Z,69.60
2018-02-08T10:47:41.624Z,68.57
2018-02-08T10:50:13.203Z,65.53
2018-02-08T10:53:05.130Z,65.80
2018-02-08T10:55:38.494Z,67.40
2018-02-08T10:58:06.926Z,68.90
2018-02-08T11:00:36.064Z,65.13
2018-02-08T11:03:05.287Z,67.90
2018-02-08T11:08:37.696Z,63.37
2018-02-08T11:11:14.249Z,62.40
2018-02-08T11:13:46.266Z,62.63
2018-02-08T11:16:14.310Z,60.57
2018-02-08T11:18:42.355Z,61.47
2018-02-08T11:21:12.444Z,59.17
2018-02-08T11:24:00.674Z,60.33
2018-02-08T11:27:03.700Z,57.97
2018-02-08T11:29:38.700Z,54.10
2018-02-08T11:32:11.198Z,58.50
2018-02-08T11:34:39.235Z,55.57
2018-02-08T11:37:09.530Z,54.37
2018-02-08T11:39:37.582Z,54.13
2018-02-08T11:42:06.802Z,55.03
2018-02-08T11:47:46.557Z,54.67
2018-02-08T11:50:14.624Z,56.87
2018-02-08T11:52:42.687Z,54.37
2018-02-08T11:55:13.623Z,52.87
2018-02-08T11:57:42.122Z,51.70
2018-02-08T12:00:13.085Z,52.40
2018-02-08T12:02:41.731Z,51.40
2018-02-08T12:05:10.537Z,52.13
2018-02-08T12:07:40.050Z,52.73
2018-02-08T12:10:10.224Z,51.43
2018-02-08T12:12:40.906Z,53.33
2018-02-08T12:15:47.334Z,52.43
2018-02-08T12:18:15.456Z,50.23
2018-02-08T12:20:43.507Z,49.90
2018-02-08T12:23:12.694Z,53.97
2018-02-08T12:25:41.234Z,49.20
2018-02-08T12:28:10.389Z,48.27
2018-02-08T12:30:43.344Z,49.63
2018-02-08T12:33:12.723Z,48.80
2018-02-08T12:35:41.627Z,50.17
2018-02-08T12:38:10.784Z,49.20
2018-02-08T12:40:40.188Z,51.37
2018-02-08T12:43:08.503Z,50.40
2018-02-08T12:45:37.752Z,53.33
2018-02-08T12:48:06.424Z,50.77
2018-02-08T12:50:36.385Z,49.70
2018-02-08T12:53:07.220Z,52.80
2018-02-08T12:55:58.761Z,53.00
2018-02-08T12:58:33.532Z,53.57
2018-02-08T13:01:30.109Z,50.77
2018-02-08T13:04:01.546Z,55.73
2018-02-08T13:06:34.646Z,55.10
2018-02-08T13:09:07.506Z,55.17
2018-02-08T13:11:40.865Z,53.80
2018-02-08T13:14:11.085Z,54.13
2018-02-08T13:16:44.184Z,51.90
2018-02-08T13:19:12.537Z,52.03
2018-02-08T13:21:41.448Z,49.57
2018-02-08T13:24:10.930Z,52.63
2018-02-08T13:26:40.503Z,48.90
2018-02-08T13:29:13.806Z,52.77
2018-02-08T13:32:12.394Z,57.03
2018-02-08T13:34:49.824Z,56.53
2018-02-08T13:37:17.893Z,55.80
2018-02-08T13:39:48.395Z,56.17
2018-02-08T13:42:17.682Z,53.63
2018-02-08T13:44:45.744Z,53.47
2018-02-08T13:47:19.456Z,52.30
2018-02-08T13:49:48.065Z,49.87
2018-02-08T13:52:19.115Z,48.60
2018-02-08T13:54:54.717Z,50.00
2018-02-08T14:01:00.793Z,52.40
2018-02-08T14:03:33.472Z,53.03
2018-02-08T14:06:07.591Z,52.37
2018-02-08T14:12:00.378Z,54.17
2018-02-08T14:17:13.372Z,55.03
2018-02-08T14:19:41.401Z,53.20
2018-02-08T14:22:10.734Z,54.97
2018-02-08T14:25:00.713Z,53.30
2018-02-08T14:27:37.075Z,50.80
2018-02-08T14:30:29.706Z,52.27
2018-02-08T14:33:03.896Z,52.47
2018-02-08T14:35:42.484Z,50.73
2018-02-08T14:38:11.353Z,52.27
2018-02-08T14:40:40.157Z,50.30
2018-02-08T14:43:10.532Z,51.90
2018-02-08T14:45:41.217Z,50.47
2018-02-08T14:51:37.251Z,50.67
2018-02-08T14:54:18.341Z,51.20
2018-02-08T14:56:46.389Z,51.37
2018-02-08T14:59:15.217Z,53.83
2018-02-08T15:01:43.239Z,53.33
2018-02-08T15:04:29.433Z,50.70
2018-02-08T15:07:03.841Z,52.13
2018-02-08T15:09:41.298Z,53.10
2018-02-08T15:12:09.347Z,54.67
2018-02-08T15:14:38.545Z,54.70
2018-02-08T15:17:08.808Z,59.87
2018-02-08T15:19:37.801Z,61.17
2018-02-08T15:22:27.898Z,63.17
2018-02-08T15:25:12.608Z,56.97
2018-02-08T15:27:42.664Z,61.67
2018-02-08T15:30:12.404Z,54.57
2018-02-08T15:32:41.254Z,56.87
2018-02-08T15:35:11.763Z,57.30
2018-02-08T15:37:42.843Z,57.27
2018-02-08T15:40:11.374Z,57.47
2018-02-08T15:42:39.411Z,57.63
2018-02-08T15:45:08.731Z,52.80
2018-02-08T15:47:38.160Z,52.80
2018-02-08T15:50:08.838Z,53.90
2018-02-08T15:53:08.706Z,52.33
2018-02-08T15:55:42.551Z,51.00
2018-02-08T15:58:17.723Z,51.30
2018-02-08T16:00:46.545Z,50.63
2018-02-08T16:03:14.652Z,50.47
2018-02-08T16:05:42.998Z,50.30
2018-02-08T16:08:11.802Z,52.00
2018-02-08T16:10:42.683Z,53.57
2018-02-08T16:13:10.777Z,52.63
2018-02-08T16:15:39.543Z,56.60
2018-02-08T16:18:08.514Z,57.00
2018-02-08T16:20:37.908Z,56.97
2018-02-08T16:23:07.610Z,55.83
2018-02-08T16:25:35.930Z,58.13
2018-02-08T16:28:04.972Z,61.67
2018-02-08T16:30:35.450Z,62.67
2018-02-08T16:33:06.809Z,62.97
2018-02-08T16:36:00.773Z,64.17
2018-02-08T16:38:55.981Z,64.60
2018-02-08T16:41:31.753Z,68.87
2018-02-08T16:44:30.646Z,68.13
2018-02-08T16:47:00.785Z,62.27
2018-02-08T16:49:31.824Z,66.83
2018-02-08T16:52:04.362Z,73.77
2018-02-08T16:54:34.992Z,75.27
2018-02-08T16:57:04.213Z,70.13
2018-02-08T16:59:33.474Z,73.97
2018-02-08T17:02:02.112Z,79.10
2018-02-08T17:04:33.274Z,85.80
2018-02-08T17:07:03.535Z,66.63
2018-02-08T17:09:32.336Z,80.37
2018-02-08T17:12:10.860Z,74.30
2018-02-08T17:14:39.231Z,109.80
2018-02-08T17:17:08.216Z,104.30
2018-02-08T17:19:36.437Z,99.80
2018-02-08T17:22:05.110Z,90.03
2018-02-08T17:24:33.262Z,77.00
2018-02-08T17:27:10.261Z,78.70
2018-02-08T17:29:38.778Z,75.20
2018-02-08T17:32:07.043Z,72.00
2018-02-08T17:34:35.952Z,69.97
2018-02-08T17:37:04.155Z,63.43
2018-02-08T17:39:32.215Z,67.23
2018-02-08T17:42:00.399Z,65.57
2018-02-08T17:44:28.852Z,71.37
2018-02-08T17:46:58.112Z,74.20
2018-02-08T17:49:26.679Z,76.27
2018-02-08T17:51:55.977Z,73.80
2018-02-08T17:54:26.385Z,83.03
2018-02-08T17:56:58.784Z,79.13
2018-02-08T17:59:28.052Z,72.40
2018-02-08T18:01:56.506Z,73.40
2018-02-08T18:04:24.718Z,76.77
2018-02-08T18:06:53.626Z,76.07
2018-02-08T18:09:21.832Z,76.87
2018-02-08T18:11:49.902Z,73.00
2018-02-08T18:14:18.013Z,75.30
2018-02-08T18:16:46.060Z,73.80
2018-02-08T18:19:14.112Z,73.83
2018-02-08T18:21:42.603Z,74.80
2018-02-08T18:24:10.655Z,74.73
2018-02-08T18:26:38.702Z,69.13
2018-02-08T18:29:06.789Z,74.30
2018-02-08T18:31:34.835Z,73.87
2018-02-08T18:34:02.887Z,74.77
2018-02-08T18:36:30.951Z,72.27
2018-02-08T18:38:59.108Z,80.90
2018-02-08T18:41:27.207Z,78.80
2018-02-08T18:43:55.294Z,75.93
2018-02-08T18:46:23.412Z,94.13
2018-02-08T18:48:51.540Z,99.80
2018-02-08T18:51:20.488Z,88.83
2018-02-08T18:53:48.831Z,88.67
2018-02-08T18:56:16.996Z,90.57
2018-02-08T18:58:45.044Z,91.07
2018-02-08T19:01:13.553Z,88.33
2018-02-08T19:03:42.347Z,81.50
2018-02-08T19:06:10.414Z,83.57
2018-02-08T19:08:38.467Z,76.10
2018-02-08T19:11:07.295Z,83.53
2018-02-08T19:13:35.369Z,86.00
2018-02-08T19:16:03.433Z,85.83
2018-02-08T19:18:32.258Z,74.27
2018-02-08T19:21:00.327Z,73.50
2018-02-08T19:23:29.147Z,78.60
2018-02-08T19:25:57.195Z,77.03
2018-02-08T19:28:26.588Z,77.67
2018-02-08T19:30:55.473Z,81.63
2018-02-08T19:33:23.532Z,69.63
2018-02-08T19:35:51.607Z,72.33
2018-02-08T19:38:19.703Z,73.70
2018-02-08T19:40:47.900Z,61.53
2018-02-08T19:43:15.956Z,65.80
2018-02-08T19:45:44.240Z,70.10
2018-02-08T19:48:13.059Z,71.73
2018-02-08T19:50:41.100Z,70.80
2018-02-08T19:53:09.167Z,69.90
2018-02-08T19:55:37.217Z,67.57
2018-02-08T19:58:05.274Z,66.00
2018-02-08T20:00:33.322Z,70.77
2018-02-08T20:03:02.187Z,74.43
2018-02-08T20:05:30.248Z,72.80
2018-02-08T20:07:58.302Z,73.03
2018-02-08T20:10:26.347Z,67.23
2018-02-08T20:12:54.393Z,69.37
2018-02-08T20:15:26.900Z,68.80
2018-02-08T20:17:54.950Z,65.93
2018-02-08T20:20:23.779Z,65.90
2018-02-08T20:22:52.264Z,66.00
2018-02-08T20:25:25.887Z,63.87
2018-02-08T20:27:53.960Z,63.87
2018-02-08T20:30:22.019Z,69.90
2018-02-08T20:32:51.229Z,63.60
2018-02-08T20:35:19.262Z,62.63
2018-02-08T20:37:47.328Z,62.70
2018-02-08T20:40:21.888Z,63.00
2018-02-08T20:42:55.510Z,58.87
2018-02-08T20:45:23.572Z,61.90
2018-02-08T20:47:51.627Z,63.13
2018-02-08T20:50:19.697Z,65.20
2018-02-08T20:52:48.518Z,66.23
2018-02-08T20:55:17.529Z,64.53
2018-02-08T20:57:45.644Z,63.93
2018-02-08T21:00:13.698Z,68.20
2018-02-08T21:02:42.061Z,64.67
2018-02-08T21:05:10.895Z,65.00
2018-02-08T21:07:39.068Z,64.37
2018-02-08T21:10:07.124Z,66.47
2018-02-08T21:12:35.454Z,64.63
2018-02-08T21:15:04.276Z,65.10
2018-02-08T21:17:32.335Z,66.70
2018-02-08T21:20:00.408Z,69.60
2018-02-08T21:22:28.461Z,64.37
2018-02-08T21:24:56.561Z,65.87
2018-02-08T21:27:25.398Z,64.13
2018-02-08T21:29:53.447Z,74.27
2018-02-08T21:32:22.280Z,88.57
2018-02-08T21:34:50.344Z,82.63
2018-02-08T21:37:18.409Z,76.97
2018-02-08T21:39:47.728Z,70.73
2018-02-08T21:42:15.833Z,62.73
2018-02-08T21:44:43.888Z,64.10
2018-02-08T21:47:12.759Z,74.80
2018-02-08T21:49:40.816Z,76.60
2018-02-08T21:52:08.906Z,79.73
2018-02-08T21:54:36.981Z,74.40
2018-02-08T21:57:05.041Z,67.70
2018-02-08T21:59:33.095Z,67.70
2018-02-08T22:02:01.147Z,67.37
2018-02-08T22:04:29.209Z,63.27
2018-02-08T22:06:57.315Z,69.50
2018-02-08T22:09:25.386Z,66.57
2018-02-08T22:11:53.470Z,67.20
2018-02-08T22:14:22.312Z,64.13
2018-02-08T22:16:51.139Z,65.00
2018-02-08T22:19:23.217Z,61.13
2018-02-08T22:21:52.042Z,64.97
2018-02-08T22:24:20.134Z,61.70
2018-02-08T22:26:48.200Z,68.50
2018-02-08T22:29:16.254Z,63.60
2018-02-08T22:31:44.320Z,63.40
2018-02-08T22:34:12.366Z,61.43
2018-02-08T22:36:40.454Z,60.33
2018-02-08T22:39:08.518Z,57.37
2018-02-08T22:41:36.700Z,63.10
2018-02-08T22:44:06.300Z,61.50
2018-02-08T22:46:35.120Z,62.23
2018-02-08T22:49:03.255Z,63.03
2018-02-08T22:51:31.513Z,66.27
2018-02-08T22:53:59.681Z,64.43
2018-02-08T22:56:28.893Z,68.17
2018-02-08T22:59:08.824Z,67.57
2018-02-08T23:01:37.092Z,68.50
2018-02-08T23:04:05.509Z,66.03
2018-02-08T23:06:33.670Z,62.93
2018-02-08T23:09:02.035Z,65.93
2018-02-08T23:11:30.343Z,68.20
2018-02-08T23:13:59.488Z,67.67
2018-02-08T23:16:29.370Z,71.50
2018-02-08T23:18:58.956Z,67.93
2018-02-08T23:21:28.530Z,66.37
2018-02-08T23:23:58.620Z,65.17
2018-02-08T23:26:27.815Z,67.37
2018-02-08T23:29:01.055Z,65.07
2018-02-08T23:31:31.044Z,65.93
2018-02-08T23:34:01.210Z,63.30
2018-02-08T23:36:32.186Z,73.53
2018-02-08T23:39:12.327Z,73.50
2018-02-08T23:41:41.433Z,72.30
2018-02-08T23:44:10.189Z,71.73
2018-02-08T23:46:39.081Z,64.13
2018-02-08T23:49:09.169Z,67.67
2018-02-08T23:51:38.176Z,63.63
2018-02-08T23:54:11.754Z,64.17
2018-02-08T23:56:42.732Z,58.23
2018-02-08T23:59:11.551Z,62.73
